Time;durP1;ratioP1;P1;durP2;ratioP2;P2;SDS_P1;SDS_P2;PMS_P1;PMS_P2;Temp;Humidity;BMP_temperature;BMP_pressure;BME280_temperature;BME280_humidity;BME280_pressure;Samples;Min_cycle;Max_cycle;Signal;HPM_P1;HPM_P2
2022/07/08 00:01:10;;;;;;;1.15;0.90;;;;;;;19.26;60.37;99932.22;5030822;28;20036;-55
2022/07/08 00:03:35;;;;;;;0.95;0.82;;;;;;;19.22;60.62;99930.88;5030389;28;20029;-53
2022/07/08 00:06:01;;;;;;;6.88;1.08;;;;;;;19.04;60.59;99902.13;5030796;28;20025;-55
2022/07/08 00:08:27;;;;;;;0.90;0.90;;;;;;;19.16;60.73;99934.31;5031114;28;20029;-56
2022/07/08 00:10:53;;;;;;;2.25;0.70;;;;;;;19.13;60.58;99934.66;5030623;28;20033;-55
2022/07/08 00:13:19;;;;;;;1.77;0.95;;;;;;;19.11;60.72;99931.28;5030637;28;20112;-54
2022/07/08 00:15:45;;;;;;;1.75;0.75;;;;;;;19.12;60.60;99943.84;5029376;28;20041;-53
2022/07/08 00:18:10;;;;;;;2.20;0.70;;;;;;;18.95;60.69;99911.31;5030776;28;20037;-49
2022/07/08 00:20:35;;;;;;;1.73;0.77;;;;;;;19.05;60.93;99941.84;5031824;28;20052;-51
2022/07/08 00:23:01;;;;;;;1.10;0.80;;;;;;;19.00;60.94;99927.94;5036897;28;20369;-55
2022/07/08 00:25:27;;;;;;;2.47;1.20;;;;;;;19.04;60.95;99931.16;5037240;28;20130;-55
2022/07/08 00:27:52;;;;;;;2.78;1.08;;;;;;;19.03;61.27;99932.16;5037694;28;20052;-54
2022/07/08 00:30:18;;;;;;;2.05;0.80;;;;;;;18.99;61.29;99926.25;5037003;28;20036;-53
2022/07/08 00:32:43;;;;;;;0.95;0.90;;;;;;;18.97;61.38;99930.97;5035511;28;20052;-55
2022/07/08 00:35:09;;;;;;;1.10;1.00;;;;;;;18.91;60.99;99927.09;5035929;28;20037;-52
2022/07/08 00:37:34;;;;;;;5.00;1.20;;;;;;;18.79;61.42;99904.09;5052580;28;20051;-54
2022/07/08 00:40:00;;;;;;;0.88;0.82;;;;;;;18.87;61.46;99924.94;5035763;28;20060;-54
2022/07/08 00:42:25;;;;;;;1.20;0.90;;;;;;;18.90;61.48;99930.00;5037125;28;20030;-54
2022/07/08 00:44:51;;;;;;;5.05;1.08;;;;;;;18.84;61.77;99933.41;5037069;28;20462;-52
2022/07/08 00:47:16;;;;;;;0.95;0.80;;;;;;;18.80;61.71;99931.03;5037116;28;20365;-55
2022/07/08 00:49:42;;;;;;;0.95;0.95;;;;;;;18.63;61.93;99907.72;5037334;28;20116;-56
2022/07/08 00:52:08;;;;;;;3.20;1.10;;;;;;;18.71;62.59;99936.69;5036712;28;20048;-54
2022/07/08 00:54:34;;;;;;;1.83;1.10;;;;;;;18.71;62.49;99942.09;5036803;28;20116;-51
2022/07/08 00:57:00;;;;;;;3.45;1.05;;;;;;;18.69;62.52;99944.97;5036836;28;20045;-56
2022/07/08 00:59:26;;;;;;;2.95;1.33;;;;;;;18.69;62.51;99939.56;5037497;28;20124;-54
2022/07/08 01:01:52;;;;;;;2.60;1.05;;;;;;;18.71;62.62;99932.09;5036827;28;20116;-55
2022/07/08 01:04:18;;;;;;;1.40;1.10;;;;;;;18.68;62.36;99929.72;5036784;28;20127;-53
2022/07/08 01:06:43;;;;;;;3.08;1.10;;;;;;;18.71;62.47;99921.25;5036913;28;20741;-53
2022/07/08 01:09:10;;;;;;;4.60;1.08;;;;;;;18.73;62.35;99932.75;5036874;28;20039;-56
2022/07/08 01:11:36;;;;;;;1.48;0.88;;;;;;;18.73;62.64;99932.75;5036280;28;20057;-56
2022/07/08 01:14:04;;;;;;;1.70;1.05;;;;;;;18.78;62.30;99935.78;5036990;28;20636;-52
2022/07/08 01:16:30;;;;;;;3.85;1.20;;;;;;;18.73;62.53;99932.75;5036753;28;20386;-55
2022/07/08 01:18:56;;;;;;;1.08;1.00;;;;;;;18.71;62.47;99944.81;5035891;28;20087;-54
2022/07/08 01:21:21;;;;;;;1.48;1.05;;;;;;;18.69;62.59;99944.97;5036390;28;20044;-53
2022/07/08 01:23:47;;;;;;;2.72;1.20;;;;;;;18.69;62.48;99950.41;5036697;28;20373;-53
2022/07/08 01:26:13;;;;;;;5.50;1.20;;;;;;;18.68;62.71;99954.13;5035319;28;20033;-55
2022/07/08 01:28:40;;;;;;;4.10;1.10;;;;;;;18.71;62.70;99945.66;5036818;28;20033;-52
2022/07/08 01:31:05;;;;;;;2.85;1.25;;;;;;;18.76;62.44;99942.44;5036686;28;20473;-56
2022/07/08 01:33:31;;;;;;;1.35;1.00;;;;;;;18.79;62.37;99950.22;5032492;28;20049;-55
2022/07/08 01:35:57;;;;;;;2.00;1.20;;;;;;;18.79;62.40;99956.47;5033809;28;20080;-53
2022/07/08 01:38:22;;;;;;;2.80;0.93;;;;;;;18.75;62.21;99947.00;5033332;28;20473;-52
2022/07/08 01:40:48;;;;;;;1.67;1.17;;;;;;;18.83;62.09;99956.97;5033289;28;20072;-54
2022/07/08 01:43:13;;;;;;;1.13;0.98;;;;;;;18.71;62.08;99939.41;5032970;28;20025;-51
2022/07/08 01:45:39;;;;;;;3.65;1.10;;;;;;;18.83;62.08;99956.97;5032134;28;20128;-54
2022/07/08 01:48:04;;;;;;;3.17;1.23;;;;;;;18.86;61.89;99959.31;5033509;28;20036;-54
2022/07/08 01:50:30;;;;;;;2.65;1.00;;;;;;;18.87;61.74;99961.03;5033012;28;20025;-60
2022/07/08 01:52:55;;;;;;;2.08;0.90;;;;;;;18.87;61.57;99966.44;5033178;28;20056;-56
2022/07/08 01:55:21;;;;;;;1.20;0.90;;;;;;;18.88;61.29;99968.13;5033682;28;20104;-55
2022/07/08 01:57:47;;;;;;;1.65;0.80;;;;;;;18.92;61.20;99966.75;5033460;28;20029;-54
2022/07/08 02:00:12;;;;;;;1.58;1.00;;;;;;;18.95;61.16;99965.56;5033048;28;20545;-52
2022/07/08 02:02:38;;;;;;;1.25;0.93;;;;;;;18.92;60.87;99950.47;5033121;28;20047;-49
2022/07/08 02:05:04;;;;;;;2.42;1.30;;;;;;;18.97;61.12;99962.69;5031964;28;20087;-54
2022/07/08 02:07:31;;;;;;;1.30;1.20;;;;;;;18.84;61.29;99941.56;5032920;28;20148;-56
2022/07/08 02:09:57;;;;;;;2.70;1.20;;;;;;;18.99;61.46;99961.50;5033357;28;20064;-53
2022/07/08 02:12:23;;;;;;;1.63;0.98;;;;;;;19.02;61.18;99955.72;5032839;28;20426;-54
2022/07/08 02:14:53;;;;;;;2.97;1.20;;;;;;;19.06;60.97;99956.25;5032740;28;20466;-57
2022/07/08 02:17:20;;;;;;;1.58;1.05;;;;;;;19.08;60.82;99960.47;5033163;28;20036;-54
2022/07/08 02:19:46;;;;;;;1.88;0.88;;;;;;;19.06;61.06;99962.53;5030895;28;20080;-51
2022/07/08 02:22:12;;;;;;;1.50;1.35;;;;;;;19.04;60.69;99958.28;5032158;28;20501;-54
2022/07/08 02:24:38;;;;;;;3.33;1.20;;;;;;;19.02;61.01;99961.16;5032761;28;20374;-53
2022/07/08 02:27:05;;;;;;;2.17;1.13;;;;;;;19.05;60.83;99960.84;5032482;28;20435;-52
2022/07/08 02:29:31;;;;;;;1.58;1.10;;;;;;;19.12;60.85;99963.66;5032504;28;20057;-54
2022/07/08 02:31:57;;;;;;;1.90;1.30;;;;;;;19.19;60.57;99967.38;5031259;28;20036;-52
2022/07/08 02:34:23;;;;;;;3.33;1.30;;;;;;;19.24;60.42;99974.16;5032847;28;20103;-52
2022/07/08 02:36:50;;;;;;;2.47;1.50;;;;;;;19.32;60.26;99974.09;5032824;28;20064;-54
2022/07/08 02:39:15;;;;;;;1.75;1.40;;;;;;;19.35;60.37;99971.88;5032179;28;20462;-52
2022/07/08 02:41:41;;;;;;;5.47;1.67;;;;;;;19.43;60.41;99972.84;5031732;28;20125;-51
2022/07/08 02:44:07;;;;;;;4.25;1.55;;;;;;;19.39;60.14;99955.22;5032431;28;20087;-54
2022/07/08 02:46:33;;;;;;;2.95;1.60;;;;;;;19.48;59.85;99965.00;5032604;28;20029;-52
2022/07/08 02:48:59;;;;;;;3.15;1.85;;;;;;;19.69;59.73;99985.25;5032141;28;20034;-53
2022/07/08 02:51:24;;;;;;;3.42;1.42;;;;;;;19.73;59.01;99984.72;5032311;28;20144;-52
2022/07/08 02:53:50;;;;;;;2.13;1.80;;;;;;;19.75;59.11;99987.25;5032647;28;20075;-53
2022/07/08 02:56:16;;;;;;;6.07;2.17;;;;;;;19.78;58.97;99992.34;5032068;28;20044;-53
2022/07/08 02:58:41;;;;;;;5.10;2.42;;;;;;;19.85;58.65;99992.44;5031836;28;20049;-54
2022/07/08 03:01:07;;;;;;;7.40;2.63;;;;;;;19.93;58.63;99995.97;5031764;28;20071;-49
2022/07/08 03:03:32;;;;;;;6.78;3.22;;;;;;;19.91;58.99;99998.03;5032290;28;20026;-50
2022/07/08 03:05:58;;;;;;;6.53;3.60;;;;;;;19.88;58.80;100009.22;5030586;28;20056;-51
2022/07/08 03:08:23;;;;;;;6.45;3.78;;;;;;;19.88;58.73;100008.38;5031377;28;20025;-49
2022/07/08 03:10:49;;;;;;;9.48;3.80;;;;;;;19.87;58.44;100007.53;5031758;28;20112;-52
2022/07/08 03:13:15;;;;;;;7.05;4.22;;;;;;;19.85;58.61;100014.19;5031721;28;20032;-52
2022/07/08 03:15:41;;;;;;;7.40;4.00;;;;;;;19.89;58.83;100018.22;5031628;28;20485;-55
2022/07/08 03:18:06;;;;;;;7.25;4.45;;;;;;;19.91;58.45;100013.50;5031183;28;20036;-56
2022/07/08 03:20:32;;;;;;;6.70;4.45;;;;;;;19.87;58.17;100018.41;5031911;28;20112;-53
2022/07/08 03:22:58;;;;;;;8.00;4.10;;;;;;;19.92;58.11;100035.03;5029940;28;20103;-55
2022/07/08 03:25:23;;;;;;;8.13;4.70;;;;;;;19.94;57.75;100024.00;5031493;28;20026;-51
2022/07/08 03:27:49;;;;;;;5.90;4.50;;;;;;;19.96;58.30;100023.81;5029922;28;20040;-52
2022/07/08 03:30:15;;;;;;;7.85;4.75;;;;;;;20.01;57.64;100030.41;5031586;28;20038;-53
2022/07/08 03:32:40;;;;;;;7.40;5.30;;;;;;;20.04;57.58;100027.31;5030922;28;20409;-53
2022/07/08 03:35:06;;;;;;;9.98;4.75;;;;;;;20.13;58.05;100033.53;5031249;28;20120;-61
2022/07/08 03:37:32;;;;;;;7.68;4.15;;;;;;;20.29;56.85;100039.88;5031420;28;20026;-51
2022/07/08 03:41:19;;;;;;;8.75;4.63;;;;;;;20.35;56.78;100041.88;5031363;28;20142;-54
2022/07/08 03:42:44;;;;;;;8.50;5.55;;;;;;;20.26;56.81;100046.53;5031260;28;20030;-50
2022/07/08 03:45:09;;;;;;;9.40;5.38;;;;;;;20.25;57.26;100043.97;5029907;28;20040;-54
2022/07/08 03:47:35;;;;;;;9.43;5.60;;;;;;;20.29;57.13;100045.34;5031070;28;20033;-53
2022/07/08 03:50:00;;;;;;;7.88;5.43;;;;;;;20.25;56.85;100038.53;5031075;28;20037;-52
2022/07/08 03:52:26;;;;;;;9.63;4.82;;;;;;;20.40;56.54;100041.34;5031443;28;20036;-54
2022/07/08 03:54:51;;;;;;;8.82;4.60;;;;;;;20.52;56.61;100042.56;5029983;28;20092;-54
2022/07/08 03:57:17;;;;;;;7.53;4.72;;;;;;;20.58;55.87;100020.06;5029594;28;20061;-55
2022/07/08 03:59:42;;;;;;;5.70;4.80;;;;;;;20.94;54.96;100051.19;5030964;28;20037;-56
2022/07/08 04:02:08;;;;;;;4.78;3.97;;;;;;;21.05;54.58;100047.16;5031082;28;20075;-57
2022/07/08 04:04:33;;;;;;;8.82;4.85;;;;;;;21.15;54.42;100046.88;5031147;28;20067;-55
2022/07/08 04:06:58;;;;;;;4.95;3.90;;;;;;;21.33;53.55;100049.22;5030940;28;20381;-53
2022/07/08 04:09:24;;;;;;;5.25;3.88;;;;;;;21.61;53.22;100040.38;5029353;28;20422;-52
2022/07/08 04:11:49;;;;;;;5.30;3.50;;;;;;;21.86;52.04;100051.78;5029319;28;20120;-54
2022/07/08 04:14:15;;;;;;;3.88;3.53;;;;;;;22.18;51.26;100051.50;5030968;28;20034;-50
2022/07/08 04:16:40;;;;;;;5.88;4.05;;;;;;;22.38;50.88;100054.38;5030773;28;20128;-55
2022/07/08 04:19:06;;;;;;;4.60;3.78;;;;;;;22.57;50.35;100043.88;5030830;28;20033;-55
2022/07/08 04:21:31;;;;;;;4.95;4.07;;;;;;;22.69;49.69;100047.78;5029505;28;20025;-50
2022/07/08 04:23:59;;;;;;;4.22;3.25;;;;;;;22.95;49.36;100046.28;5028959;28;20492;-53
2022/07/08 04:26:31;;;;;;;4.25;3.35;;;;;;;22.83;48.77;100031.47;5029301;28;20334;-54
2022/07/08 04:28:57;;;;;;;5.97;2.67;;;;;;;23.18;47.70;100031.50;5028957;28;20026;-52
2022/07/08 04:31:23;;;;;;;3.88;2.83;;;;;;;23.50;47.46;100059.19;5029412;28;20030;-56
2022/07/08 04:33:49;;;;;;;3.25;2.30;;;;;;;24.05;45.56;100039.19;5028870;28;20078;-59
2022/07/08 04:36:15;;;;;;;3.53;2.20;;;;;;;25.91;42.19;100045.59;5029017;28;20029;-52
2022/07/08 04:38:40;;;;;;;3.75;2.47;;;;;;;27.89;37.39;100039.72;5029070;28;20026;-55
2022/07/08 04:41:05;;;;;;;4.10;2.67;;;;;;;29.26;34.67;100007.75;5029817;28;20478;-55
2022/07/08 04:43:31;;;;;;;4.05;2.70;;;;;;;30.50;32.45;100041.28;5029016;28;20472;-52
2022/07/08 04:45:56;;;;;;;3.45;2.65;;;;;;;31.01;31.36;100034.88;5029558;28;20062;-49
2022/07/08 04:48:22;;;;;;;3.53;2.58;;;;;;;30.83;31.97;100037.91;5028901;28;20028;-53
2022/07/08 04:50:47;;;;;;;3.38;2.47;;;;;;;30.39;32.32;100046.88;5029786;28;20069;-55
2022/07/08 04:53:13;;;;;;;4.82;2.88;;;;;;;29.56;33.62;100045.38;5029506;28;20449;-52
2022/07/08 04:55:38;;;;;;;7.68;2.78;;;;;;;28.99;34.54;100050.47;5029188;28;20083;-58
2022/07/08 04:58:04;;;;;;;4.15;1.92;;;;;;;28.48;35.17;100028.03;5029073;28;20113;-53
2022/07/08 05:00:32;;;;;;;6.32;2.30;;;;;;;27.71;36.28;100029.59;5029219;28;20030;-53
2022/07/08 05:02:58;;;;;;;4.30;1.80;;;;;;;27.26;37.60;100042.63;5029244;28;20099;-51
2022/07/08 05:05:24;;;;;;;2.72;2.00;;;;;;;27.73;35.96;100052.19;5029098;28;20037;-52
2022/07/08 05:07:51;;;;;;;1.70;1.42;;;;;;;28.07;35.13;100052.59;5030222;28;20453;-53
2022/07/08 05:10:19;;;;;;;2.10;1.50;;;;;;;28.43;34.64;100050.75;5032525;28;20033;-53
2022/07/08 05:12:45;;;;;;;7.82;2.00;;;;;;;30.36;31.24;100045.44;5032734;28;20040;-52
2022/07/08 05:15:11;;;;;;;2.20;1.75;;;;;;;32.54;27.84;100042.66;5032556;28;20037;-56
2022/07/08 05:17:38;;;;;;;2.55;1.73;;;;;;;32.43;28.07;100047.28;5032854;28;20026;-51
2022/07/08 05:20:05;;;;;;;2.60;1.70;;;;;;;32.02;28.70;100039.41;5029485;28;20424;-54
2022/07/08 05:22:31;;;;;;;2.22;1.40;;;;;;;32.36;27.32;100033.66;5032332;28;20053;-55
2022/07/08 05:24:56;;;;;;;3.33;1.60;;;;;;;33.21;27.18;100034.78;5032589;28;20104;-52
2022/07/08 05:27:22;;;;;;;2.22;1.30;;;;;;;33.70;25.72;100024.41;5032123;28;20485;-53
2022/07/08 05:29:47;;;;;;;4.22;1.63;;;;;;;33.14;26.57;100031.41;5031704;28;20103;-51
2022/07/08 05:32:13;;;;;;;4.80;1.50;;;;;;;32.11;27.84;100037.84;5032536;28;20049;-52
2022/07/08 05:34:41;;;;;;;5.57;1.40;;;;;;;33.17;27.11;100039.19;5032109;28;20037;-60
2022/07/08 05:37:07;;;;;;;4.60;1.27;;;;;;;35.24;23.78;100039.41;5032126;28;20029;-54
2022/07/08 05:39:33;;;;;;;1.65;1.17;;;;;;;36.21;22.71;100039.16;5032251;28;20033;-54
2022/07/08 05:41:59;;;;;;;2.90;1.20;;;;;;;36.14;21.98;100039.50;5032078;28;20049;-53
2022/07/08 05:44:24;;;;;;;3.83;0.95;;;;;;;36.10;21.92;100043.97;5031862;28;20067;-58
2022/07/08 05:46:50;;;;;;;1.50;0.95;;;;;;;36.80;20.94;100038.38;5032225;28;20520;-52
2022/07/08 05:49:15;;;;;;;1.75;0.90;;;;;;;36.57;21.28;100044.47;5031931;28;20113;-53
2022/07/08 05:51:41;;;;;;;3.92;0.90;;;;;;;35.90;22.09;100040.19;5033013;28;20037;-51
2022/07/08 05:54:06;;;;;;;1.80;0.90;;;;;;;35.52;22.55;100039.03;5032004;28;20432;-51
2022/07/08 05:56:32;;;;;;;2.25;0.93;;;;;;;34.74;22.86;100022.56;5033142;28;20045;-55
2022/07/08 05:58:57;;;;;;;1.00;0.90;;;;;;;34.71;22.95;100048.97;5033108;28;20037;-52
2022/07/08 06:01:23;;;;;;;0.75;0.60;;;;;;;35.58;21.68;100029.56;5032017;28;20029;-53
2022/07/08 06:03:48;;;;;;;0.80;0.68;;;;;;;34.96;22.52;100052.00;5032300;28;20053;-55
2022/07/08 06:06:15;;;;;;;2.90;0.90;;;;;;;33.23;24.51;100051.97;5032971;28;20436;-51
2022/07/08 06:08:41;;;;;;;1.25;0.85;;;;;;;32.04;26.65;100053.81;5032751;28;20538;-50
2022/07/08 06:11:07;;;;;;;0.90;0.70;;;;;;;32.58;25.18;100050.19;5033309;28;20039;-56
2022/07/08 06:13:32;;;;;;;2.97;0.75;;;;;;;33.30;24.89;100065.59;5048319;28;20115;-55
2022/07/08 06:15:58;;;;;;;0.70;0.70;;;;;;;35.68;21.67;100064.84;5032714;28;20449;-55
2022/07/08 06:18:23;;;;;;;2.08;0.80;;;;;;;38.15;18.88;100049.50;5031980;28;20085;-54
2022/07/08 06:20:49;;;;;;;1.52;0.90;;;;;;;40.16;16.93;100041.03;5032286;28;20044;-52
2022/07/08 06:23:14;;;;;;;1.48;0.98;;;;;;;40.50;16.40;100055.66;5032716;28;20049;-55
2022/07/08 06:25:40;;;;;;;2.40;0.85;;;;;;;39.24;17.38;100066.34;5032397;28;20113;-53
2022/07/08 06:28:05;;;;;;;3.15;0.70;;;;;;;37.70;19.59;100065.81;5032433;28;20032;-55
2022/07/08 06:30:31;;;;;;;1.05;0.82;;;;;;;36.45;20.37;100067.13;5047022;28;20037;-53
2022/07/08 06:32:59;;;;;;;1.23;0.85;;;;;;;35.73;21.53;100087.09;5032198;28;20045;-56
2022/07/08 06:35:26;;;;;;;0.93;0.80;;;;;;;36.74;20.21;100080.28;5031992;28;20045;-56
2022/07/08 06:37:53;;;;;;;2.80;0.80;;;;;;;37.04;19.66;100071.91;5032619;28;20029;-55
2022/07/08 06:40:22;;;;;;;4.28;0.85;;;;;;;36.69;20.24;100077.53;5031766;28;20468;-54
2022/07/08 06:42:48;;;;;;;2.67;0.90;;;;;;;35.31;21.65;100075.28;5047180;28;20462;-52
2022/07/08 06:45:14;;;;;;;3.13;1.00;;;;;;;33.98;23.34;100075.03;5032335;28;20531;-51
2022/07/08 06:47:39;;;;;;;1.58;0.75;;;;;;;34.86;22.35;100070.38;5032577;28;20045;-53
2022/07/08 06:50:06;;;;;;;1.48;0.95;;;;;;;36.65;19.63;100065.28;5031966;28;20033;-53
2022/07/08 06:52:33;;;;;;;1.92;0.75;;;;;;;38.30;18.13;100069.94;5031312;28;20529;-56
2022/07/08 06:54:59;;;;;;;0.68;0.60;;;;;;;39.66;16.79;100074.72;5030979;28;20033;-54
2022/07/08 06:57:25;;;;;;;1.05;0.70;;;;;;;38.96;17.01;100075.56;5031848;28;20079;-54
2022/07/08 06:59:51;;;;;;;1.23;0.80;;;;;;;37.60;18.61;100078.78;5031804;28;20037;-55
2022/07/08 07:02:17;;;;;;;1.98;1.15;;;;;;;36.47;19.78;100073.25;5031240;28;20033;-53
2022/07/08 07:04:43;;;;;;;0.93;0.82;;;;;;;35.75;20.58;100073.72;5031881;28;20067;-54
2022/07/08 07:07:08;;;;;;;1.40;0.70;;;;;;;35.38;20.75;100084.16;5032115;28;20051;-51
2022/07/08 07:09:35;;;;;;;1.42;1.02;;;;;;;36.11;19.70;100070.72;5031678;28;20458;-54
2022/07/08 07:12:01;;;;;;;2.83;1.13;;;;;;;38.98;17.67;100066.88;5031425;28;20033;-55
2022/07/08 07:14:27;;;;;;;1.55;0.77;;;;;;;41.16;15.09;100069.06;5031739;28;20091;-49
2022/07/08 07:16:52;;;;;;;2.28;0.85;;;;;;;42.53;13.50;100065.38;5031196;28;20433;-55
2022/07/08 07:19:18;;;;;;;2.42;0.80;;;;;;;42.91;13.68;100068.59;5031855;28;20037;-52
2022/07/08 07:21:43;;;;;;;2.15;0.80;;;;;;;44.27;12.30;100068.72;5031893;28;20021;-59
2022/07/08 07:24:09;;;;;;;1.98;0.90;;;;;;;45.21;11.81;100062.66;5031909;28;20507;-55
2022/07/08 07:26:34;;;;;;;1.05;0.80;;;;;;;45.06;12.35;100061.38;5031611;28;20060;-53
2022/07/08 07:29:00;;;;;;;2.90;0.90;;;;;;;45.34;11.96;100061.50;5031735;28;20029;-56
2022/07/08 07:31:25;;;;;;;3.03;0.90;;;;;;;45.65;11.73;100064.88;5030495;28;20029;-54
2022/07/08 07:33:51;;;;;;;1.92;0.88;;;;;;;43.03;13.50;100077.97;5031454;28;20061;-55
2022/07/08 07:36:17;;;;;;;1.42;1.02;;;;;;;42.09;14.58;100076.66;5030021;28;20478;-50
2022/07/08 07:38:42;;;;;;;4.43;1.10;;;;;;;43.30;13.12;100064.63;5031427;28;20029;-55
2022/07/08 07:41:07;;;;;;;2.40;0.90;;;;;;;44.63;12.31;100069.19;5031434;28;20060;-57
2022/07/08 07:43:33;;;;;;;1.90;0.80;;;;;;;45.67;11.80;100073.81;5031432;28;20030;-54
2022/07/08 07:45:58;;;;;;;2.00;0.80;;;;;;;46.64;10.74;100072.16;5031169;28;20029;-53
2022/07/08 07:48:24;;;;;;;1.58;1.08;;;;;;;47.92;9.41;100080.50;5031197;28;20032;-52
2022/07/08 07:50:49;;;;;;;0.90;0.60;;;;;;;49.02;9.00;100077.72;5031510;28;20441;-56
2022/07/08 07:53:15;;;;;;;1.27;0.70;;;;;;;49.31;8.42;100083.84;5031646;28;20025;-52
2022/07/08 07:55:40;;;;;;;1.52;0.90;;;;;;;46.51;10.53;100074.25;5031374;28;20037;-51
2022/07/08 07:58:05;;;;;;;1.70;0.90;;;;;;;42.90;13.13;100084.66;5031313;28;20021;-51
2022/07/08 08:00:31;;;;;;;2.25;1.00;;;;;;;40.03;15.67;100075.56;5031182;28;20044;-53
2022/07/08 08:02:56;;;;;;;2.25;1.00;;;;;;;37.06;18.83;100083.63;5031093;28;20454;-54
2022/07/08 08:05:22;;;;;;;1.85;0.80;;;;;;;34.92;21.19;100093.44;5029851;28;20135;-57
2022/07/08 08:07:48;;;;;;;4.80;1.10;;;;;;;33.17;23.35;100070.56;5031028;28;20480;-53
2022/07/08 08:10:14;;;;;;;1.08;0.98;;;;;;;32.30;24.55;100085.38;5031526;28;20035;-49
2022/07/08 08:12:41;;;;;;;4.47;1.15;;;;;;;31.27;25.69;100085.03;5031091;28;20025;-51
2022/07/08 08:15:08;;;;;;;2.90;1.00;;;;;;;30.38;27.26;100093.00;5030659;28;20037;-52
2022/07/08 08:17:41;;;;;;;1.73;1.05;;;;;;;29.99;27.99;100095.56;5031032;28;20375;-53
2022/07/08 08:20:08;;;;;;;1.17;1.05;;;;;;;30.28;27.67;100090.06;5031226;28;20267;-55
2022/07/08 08:22:34;;;;;;;2.75;1.23;;;;;;;32.24;25.15;100069.81;5030828;28;20113;-54
2022/07/08 08:25:00;;;;;;;2.15;0.90;;;;;;;32.87;24.32;100068.41;5030818;28;20456;-49
2022/07/08 08:27:25;;;;;;;2.53;0.90;;;;;;;33.02;23.37;100078.78;5030842;28;20037;-50
2022/07/08 08:29:51;;;;;;;1.80;0.98;;;;;;;33.18;23.33;100049.19;5031099;28;20083;-52
2022/07/08 08:32:17;;;;;;;1.38;0.93;;;;;;;33.09;23.54;100081.31;5031378;28;20077;-52
2022/07/08 08:34:42;;;;;;;2.45;0.98;;;;;;;32.56;24.48;100076.50;5030960;28;20033;-57
2022/07/08 08:37:08;;;;;;;2.08;0.80;;;;;;;32.04;24.98;100074.06;5030581;28;20477;-53
2022/07/08 08:39:33;;;;;;;4.60;0.90;;;;;;;31.36;26.12;100069.66;5030809;28;20053;-56
2022/07/08 08:41:59;;;;;;;1.20;1.00;;;;;;;30.93;26.87;100079.53;5031769;28;20079;-54
2022/07/08 08:44:26;;;;;;;2.58;1.00;;;;;;;30.20;27.97;100083.88;5034483;28;20428;-52
2022/07/08 08:46:53;;;;;;;1.95;1.10;;;;;;;29.51;28.67;100080.00;5034613;28;20107;-52
2022/07/08 08:49:20;;;;;;;3.78;1.33;;;;;;;29.20;29.94;100073.81;5034774;28;20030;-57
2022/07/08 08:51:49;;;;;;;5.18;1.15;;;;;;;29.27;30.02;100086.63;5034803;28;20083;-53
2022/07/08 08:54:17;;;;;;;1.42;1.10;;;;;;;28.94;29.75;100084.25;5034699;28;20086;-53
2022/07/08 08:56:45;;;;;;;3.25;1.02;;;;;;;28.48;29.86;100050.06;5034510;28;20029;-53
2022/07/08 08:59:11;;;;;;;1.65;1.00;;;;;;;28.35;30.46;100085.00;5034535;28;20040;-57
2022/07/08 09:01:36;;;;;;;1.33;1.00;;;;;;;28.14;31.08;100078.09;5034540;28;20029;-52
2022/07/08 09:04:02;;;;;;;2.17;1.00;;;;;;;27.93;31.92;100071.19;5034378;28;20033;-52
2022/07/08 09:06:28;;;;;;;1.45;1.23;;;;;;;27.96;32.19;100083.63;5034321;28;20041;-53
2022/07/08 09:08:53;;;;;;;5.13;1.13;;;;;;;28.04;32.33;100069.56;5034529;28;20442;-54
2022/07/08 09:11:19;;;;;;;3.00;1.02;;;;;;;28.29;31.84;100082.34;5034387;28;20036;-53
2022/07/08 09:14:18;;;;;;;2.60;1.02;;;;;;;28.69;30.78;100084.44;5034368;28;20025;-53
2022/07/08 09:17:17;;;;;;;2.35;1.05;;;;;;;28.57;30.68;100084.44;5033815;28;20030;-55
2022/07/08 09:19:44;;;;;;;0.90;0.90;;;;;;;28.25;31.22;100086.66;5033886;28;20120;-55
2022/07/08 09:22:09;;;;;;;1.75;1.00;;;;;;;28.12;32.04;100091.25;5034220;28;20087;-52
2022/07/08 09:24:36;;;;;;;4.75;1.30;;;;;;;27.89;31.81;100092.81;5034073;28;20464;-51
2022/07/08 09:27:03;;;;;;;1.20;1.10;;;;;;;27.73;32.74;100083.31;5033753;28;20120;-55
2022/07/08 09:29:29;;;;;;;1.27;1.17;;;;;;;27.76;32.62;100071.84;5034104;28;20038;-54
2022/07/08 09:32:09;;;;;;;1.58;1.20;;;;;;;28.02;31.84;100083.56;5033682;28;20068;-55
2022/07/08 09:34:36;;;;;;;2.88;1.30;;;;;;;28.19;31.96;100086.50;5033744;28;20068;-50
2022/07/08 09:37:19;;;;;;;2.15;1.20;;;;;;;28.63;30.79;100091.75;5033871;28;20038;-53
2022/07/08 09:39:46;;;;;;;3.63;1.20;;;;;;;28.62;29.73;100053.44;5033674;28;20374;-53
2022/07/08 09:42:14;;;;;;;1.95;1.20;;;;;;;29.05;29.62;100090.84;5033706;28;20044;-54
2022/07/08 09:44:41;;;;;;;2.05;1.10;;;;;;;29.04;29.33;100075.38;5033525;28;20140;-51
2022/07/08 09:47:10;;;;;;;3.60;1.15;;;;;;;29.33;29.50;100089.25;5033863;28;20405;-56
2022/07/08 09:49:39;;;;;;;2.63;1.15;;;;;;;29.47;28.92;100084.34;5032607;28;20061;-56
2022/07/08 09:52:05;;;;;;;4.70;1.35;;;;;;;29.70;28.92;100077.06;5030718;28;20124;-56
2022/07/08 09:54:31;;;;;;;4.72;1.23;;;;;;;30.12;28.72;100078.72;5026928;28;20114;-53
2022/07/08 09:57:00;;;;;;;1.48;1.20;;;;;;;30.32;27.70;100083.78;5031924;28;20033;-52
2022/07/08 09:59:27;;;;;;;1.50;1.20;;;;;;;30.14;28.53;100081.25;5028876;28;20047;-58
2022/07/08 10:01:53;;;;;;;1.75;1.13;;;;;;;29.92;28.13;100071.72;5028315;28;20021;-58
2022/07/08 10:04:19;;;;;;;3.38;1.33;;;;;;;29.73;29.19;100075.75;5031102;28;20048;-55
2022/07/08 10:06:45;;;;;;;2.65;1.40;;;;;;;29.27;29.90;100064.56;5032487;28;20444;-50
2022/07/08 10:09:11;;;;;;;2.53;1.30;;;;;;;28.79;30.46;100062.69;5032779;28;20120;-53
2022/07/08 10:11:38;;;;;;;1.73;1.40;;;;;;;28.20;31.03;100065.34;5027301;28;20026;-51
2022/07/08 10:14:05;;;;;;;1.52;1.17;;;;;;;27.90;31.75;100072.50;5020542;28;20047;-54
2022/07/08 10:16:34;;;;;;;2.63;1.40;;;;;;;27.77;31.84;100064.44;5027787;28;20091;-55
2022/07/08 10:19:01;;;;;;;1.88;1.63;;;;;;;27.73;32.22;100065.94;5028447;28;20029;-55
2022/07/08 10:21:30;;;;;;;2.13;1.38;;;;;;;27.61;31.67;100060.38;5030696;28;20029;-53
2022/07/08 10:23:56;;;;;;;1.55;1.30;;;;;;;27.46;32.08;100064.38;5029176;28;20033;-54
2022/07/08 10:26:28;;;;;;;3.22;1.17;;;;;;;27.21;33.23;100047.94;5031346;28;20087;-56
2022/07/08 10:29:27;;;;;;;2.15;1.50;;;;;;;27.25;32.50;100062.94;5032241;28;20033;-55
2022/07/08 10:31:53;;;;;;;2.40;1.50;;;;;;;27.02;33.83;100066.34;5031430;28;20045;-59
2022/07/08 10:34:30;;;;;;;2.38;1.23;;;;;;;27.08;32.90;100068.16;5031681;28;20091;-57
2022/07/08 10:36:55;;;;;;;2.88;1.50;;;;;;;27.16;32.26;100064.28;5020529;28;20531;-55
2022/07/08 10:39:31;;;;;;;3.05;1.58;;;;;;;27.41;31.91;100068.88;5031660;28;20034;-54
2022/07/08 10:42:01;;;;;;;2.08;1.27;;;;;;;27.35;31.23;100049.47;5031330;28;20037;-55
2022/07/08 10:44:45;;;;;;;3.65;1.38;;;;;;;27.64;30.81;100074.53;5032546;28;20037;-53
2022/07/08 10:47:17;;;;;;;3.08;1.20;;;;;;;27.36;31.58;100062.16;5031920;28;20390;-54
2022/07/08 10:49:45;;;;;;;2.70;1.33;;;;;;;27.20;32.96;100062.75;5031440;28;20025;-53
2022/07/08 10:52:11;;;;;;;2.00;1.17;;;;;;;27.14;32.86;100055.44;5023621;28;20041;-54
2022/07/08 10:54:37;;;;;;;5.22;1.38;;;;;;;27.30;31.72;100051.22;5030053;28;20498;-56
2022/07/08 10:57:27;;;;;;;1.48;1.20;;;;;;;27.78;31.13;100064.19;5031759;28;20547;-54
2022/07/08 11:00:05;;;;;;;4.35;1.30;;;;;;;28.00;31.50;100062.84;5025541;28;20457;-54
2022/07/08 11:02:31;;;;;;;1.67;1.10;;;;;;;27.93;31.44;100040.94;5030640;28;20046;-54
2022/07/08 11:04:57;;;;;;;2.47;1.48;;;;;;;27.77;31.44;100047.94;5031222;28;20037;-52
2022/07/08 11:07:28;;;;;;;2.72;1.30;;;;;;;27.53;31.90;100039.56;5032210;28;20105;-52
2022/07/08 11:10:11;;;;;;;2.22;1.35;;;;;;;27.41;32.67;100044.97;5032005;28;20381;-52
2022/07/08 11:12:46;;;;;;;1.50;1.30;;;;;;;27.18;33.05;100045.66;5026534;28;20025;-54
2022/07/08 11:15:16;;;;;;;2.15;1.30;;;;;;;26.90;33.57;100056.09;5023437;28;20107;-53
2022/07/08 11:17:42;;;;;;;2.92;1.42;;;;;;;26.67;33.82;100055.88;5017197;28;20030;-57
2022/07/08 11:20:11;;;;;;;1.95;1.50;;;;;;;26.31;33.53;100033.56;5014144;28;20121;-55
2022/07/08 11:22:40;;;;;;;2.17;1.35;;;;;;;26.31;33.78;100055.53;5031554;28;20025;-56
2022/07/08 11:25:10;;;;;;;2.83;1.33;;;;;;;26.48;34.67;100062.13;5031078;28;20034;-56